Time;durP1;ratioP1;P1;durP2;ratioP2;P2;SDS_P1;SDS_P2;PMS_P1;PMS_P2;Temp;Humidity;BMP_temperature;BMP_pressure;BME280_temperature;BME280_humidity;BME280_pressure;Samples;Min_cycle;Max_cycle;Signal;HPM_P1;HPM_P2
2023/04/08 08:10:32;;;;;;;21.88;17.98;;;19.30;95.30;;;;;;5063664;28;20470;-73
2023/04/08 08:12:58;;;;;;;24.65;19.67;;;18.20;92.10;;;;;;5064379;28;20024;-73
2023/04/08 08:15:24;;;;;;;31.35;22.02;;;17.50;91.50;;;;;;5065461;28;20452;-80
2023/04/08 08:17:49;;;;;;;27.60;22.33;;;16.60;93.00;;;;;;5064493;28;20021;-73
2023/04/08 08:20:15;;;;;;;27.60;20.83;;;16.20;92.90;;;;;;5060907;28;20020;-70
2023/04/08 08:22:41;;;;;;;32.13;21.38;;;16.10;95.20;;;;;;5061145;28;20020;-70
2023/04/08 08:25:08;;;;;;;27.10;19.02;;;16.30;96.90;;;;;;5060458;28;20139;-69
2023/04/08 08:27:34;;;;;;;29.75;19.80;;;16.70;98.20;;;;;;5063309;28;20104;-70
2023/04/08 08:29:59;;;;;;;33.10;18.40;;;16.90;98.40;;;;;;5065838;28;20124;-69
2023/04/08 08:32:25;;;;;;;38.25;19.17;;;17.10;98.30;;;;;;5065213;28;20049;-69
2023/04/08 08:34:50;;;;;;;24.70;17.15;;;17.30;98.50;;;;;;5060603;28;20394;-69
2023/04/08 08:37:16;;;;;;;27.33;18.15;;;17.50;98.70;;;;;;5063378;28;20029;-69
2023/04/08 08:39:42;;;;;;;26.00;17.58;;;17.60;99.00;;;;;;5056113;28;20033;-69
2023/04/08 08:42:26;;;;;;;24.05;17.02;;;17.70;99.00;;;;;;5056237;28;20046;-69
2023/04/08 08:44:51;;;;;;;24.83;17.67;;;16.70;98.90;;;;;;5079959;28;20040;-69
2023/04/08 08:47:17;;;;;;;27.75;14.98;;;17.80;99.10;;;;;;5067151;28;20020;-69
2023/04/08 08:49:43;;;;;;;23.10;14.63;;;17.90;97.90;;;;;;5057397;28;20029;-69
2023/04/08 08:52:09;;;;;;;25.65;14.40;;;17.90;97.70;;;;;;5075178;28;20028;-69
2023/04/08 08:54:34;;;;;;;22.50;14.15;;;18.00;96.80;;;;;;5067074;28;20021;-68
2023/04/08 08:57:00;;;;;;;22.60;13.77;;;18.00;96.20;;;;;;5077705;28;20021;-69
2023/04/08 08:59:25;;;;;;;26.63;14.85;;;18.80;96.20;;;;;;5070962;28;20027;-69
2023/04/08 09:01:51;;;;;;;19.75;13.77;;;18.20;95.70;;;;;;5079547;28;20032;-70
2023/04/08 09:04:18;;;;;;;25.83;13.60;;;18.20;95.60;;;;;;5059367;28;20100;-69
2023/04/08 09:06:45;;;;;;;25.80;14.30;;;18.20;95.50;;;;;;5058416;28;20024;-69
2023/04/08 09:09:11;;;;;;;22.40;13.95;;;18.30;95.40;;;;;;5054672;28;20485;-69
2023/04/08 09:11:38;;;;;;;21.70;13.93;;;18.30;95.40;;;;;;5055954;28;20028;-69
2023/04/08 09:14:05;;;;;;;19.45;13.20;;;18.30;95.40;;;;;;5056692;28;20043;-69
2023/04/08 09:16:31;;;;;;;23.88;14.77;;;18.60;95.40;;;;;;5054354;28;20614;-69
2023/04/08 09:19:07;;;;;;;22.55;13.57;;;18.50;95.40;;;;;;5059437;28;20103;-70
2023/04/08 09:21:34;;;;;;;23.40;13.10;;;18.40;95.30;;;;;;5043192;28;20405;-69
2023/04/08 09:23:59;;;;;;;21.05;13.57;;;18.50;95.30;;;;;;5025491;28;20023;-70
2023/04/08 09:26:25;;;;;;;20.05;13.27;;;18.50;95.30;;;;;;5043002;28;20033;-69
2023/04/08 09:28:58;;;;;;;21.75;14.50;;;18.50;95.20;;;;;;5043686;28;20029;-69
2023/04/08 09:31:25;;;;;;;17.52;13.07;;;18.50;96.10;;;;;;5043105;28;20025;-69
2023/04/08 09:33:53;;;;;;;17.60;12.25;;;18.70;97.20;;;;;;5041526;28;20029;-69
2023/04/08 09:36:18;;;;;;;17.55;12.23;;;18.50;98.20;;;;;;5043362;28;20033;-69
2023/04/08 09:38:44;;;;;;;20.67;12.68;;;18.50;98.60;;;;;;5045140;28;20024;-69
2023/04/08 09:41:13;;;;;;;19.15;12.32;;;18.60;98.80;;;;;;5044126;28;20029;-69
2023/04/08 09:43:41;;;;;;;17.70;12.13;;;18.60;98.90;;;;;;5042633;28;20049;-69
2023/04/08 09:46:10;;;;;;;17.60;12.07;;;18.60;98.70;;;;;;5042830;28;20037;-70
2023/04/08 09:48:38;;;;;;;18.55;11.30;;;18.60;98.70;;;;;;5026909;28;20028;-69
2023/04/08 09:51:04;;;;;;;17.63;11.77;;;18.60;98.80;;;;;;5047286;28;20029;-69
2023/04/08 09:53:33;;;;;;;16.25;11.80;;;18.70;98.80;;;;;;5040033;28;20534;-69
2023/04/08 09:55:58;;;;;;;17.48;12.77;;;18.70;98.30;;;;;;5025541;28;20236;-69
2023/04/08 09:58:28;;;;;;;16.42;11.73;;;18.70;98.30;;;;;;5041964;28;20031;-69
2023/04/08 10:00:54;;;;;;;16.73;11.98;;;18.70;98.20;;;;;;5031820;28;20043;-69
2023/04/08 10:03:30;;;;;;;18.00;11.98;;;18.80;98.30;;;;;;5044556;28;20028;-69
2023/04/08 10:05:56;;;;;;;17.75;10.32;;;18.70;98.30;;;;;;5038710;28;20043;-69
2023/04/08 10:08:22;;;;;;;17.95;11.52;;;18.80;98.50;;;;;;5041990;28;20029;-69
2023/04/08 10:10:48;;;;;;;17.15;11.13;;;18.80;98.30;;;;;;5045421;28;20026;-70
2023/04/08 10:13:13;;;;;;;17.15;10.80;;;18.80;98.20;;;;;;5040881;28;20075;-69
2023/04/08 10:15:41;;;;;;;18.60;10.93;;;18.80;98.50;;;;;;5039207;28;20017;-70
2023/04/08 10:18:10;;;;;;;17.25;10.98;;;18.80;99.00;;;;;;5035356;28;20049;-69
2023/04/08 10:20:36;;;;;;;14.48;10.25;;;18.90;99.30;;;;;;5038882;28;20045;-70
2023/04/08 10:23:02;;;;;;;16.20;9.95;;;18.90;99.80;;;;;;5036890;28;20438;-68
2023/04/08 10:25:30;;;;;;;14.90;9.98;;;18.90;99.90;;;;;;5036782;28;20579;-68
2023/04/08 10:27:55;;;;;;;14.55;10.50;;;18.80;99.90;;;;;;5040820;28;20581;-68
2023/04/08 10:30:27;;;;;;;13.68;9.23;;;18.90;99.90;;;;;;5044596;28;20025;-69
2023/04/08 10:32:59;;;;;;;13.35;8.52;;;18.90;99.90;;;;;;5032370;28;20539;-70
2023/04/08 10:35:34;;;;;;;12.90;9.00;;;18.90;99.80;;;;;;5041876;28;20029;-70
2023/04/08 10:38:00;;;;;;;13.45;9.52;;;18.90;99.20;;;;;;5064430;28;20304;-70
2023/04/08 10:40:25;;;;;;;15.15;9.55;;;18.90;99.50;;;;;;5063830;28;20383;-69
2023/04/08 10:42:55;;;;;;;13.85;9.35;;;18.90;99.40;;;;;;5062635;28;20032;-70
2023/04/08 10:45:21;;;;;;;12.23;9.13;;;18.90;99.60;;;;;;5053539;28;20029;-70
2023/04/08 10:47:46;;;;;;;13.52;9.35;;;18.90;99.70;;;;;;5062107;28;20035;-70
2023/04/08 10:50:16;;;;;;;15.27;8.07;;;18.90;99.90;;;;;;5052000;28;20267;-70
2023/04/08 10:52:48;;;;;;;12.52;9.70;;;18.90;99.50;;;;;;5063178;28;20029;-70
2023/04/08 10:55:15;;;;;;;11.65;8.75;;;18.90;99.90;;;;;;5058118;28;20051;-70
2023/04/08 10:57:41;;;;;;;12.10;8.43;;;18.90;99.90;;;;;;5053875;28;20051;-70
2023/04/08 11:00:10;;;;;;;12.48;9.02;;;18.90;99.90;;;;;;5044544;28;20480;-70
2023/04/08 11:02:38;;;;;;;12.40;8.57;;;18.90;99.90;;;;;;5048951;28;20048;-69
2023/04/08 11:05:04;;;;;;;13.05;9.07;;;19.00;99.90;;;;;;5044717;28;20025;-70
2023/04/08 11:07:30;;;;;;;13.18;9.02;;;19.00;99.90;;;;;;5044420;28;20039;-70
2023/04/08 11:09:55;;;;;;;10.43;7.85;;;19.00;99.90;;;;;;5037765;28;20495;-70
2023/04/08 11:12:21;;;;;;;15.35;9.10;;;19.00;99.90;;;;;;5041472;28;20029;-70
2023/04/08 11:14:48;;;;;;;13.57;8.70;;;19.00;99.90;;;;;;5055008;28;20024;-70
2023/04/08 11:17:15;;;;;;;14.63;8.38;;;19.00;99.90;;;;;;5054533;28;20026;-70
2023/04/08 11:19:41;;;;;;;10.45;9.05;;;18.90;99.90;;;;;;5047928;28;20024;-70
2023/04/08 11:22:08;;;;;;;10.27;7.78;;;19.00;99.90;;;;;;5048470;28;20036;-69
2023/04/08 11:24:35;;;;;;;14.38;8.85;;;19.00;99.90;;;;;;5049218;28;20052;-69
2023/04/08 11:27:02;;;;;;;17.67;8.18;;;18.90;99.90;;;;;;5030628;28;20480;-70
2023/04/08 11:29:28;;;;;;;12.07;8.25;;;18.90;99.90;;;;;;5042464;28;20032;-69
2023/04/08 11:31:53;;;;;;;13.75;8.68;;;18.90;99.90;;;;;;5062837;28;20022;-69
2023/04/08 11:34:23;;;;;;;15.73;8.43;;;18.90;99.90;;;;;;5055990;28;20033;-70
2023/04/08 11:36:49;;;;;;;11.27;7.43;;;18.90;99.90;;;;;;5057562;28;20364;-69
2023/04/08 11:39:15;;;;;;;10.68;7.07;;;18.90;99.90;;;;;;5050234;28;20032;-69
2023/04/08 11:41:40;;;;;;;11.30;8.48;;;18.90;99.90;;;;;;5062798;28;20383;-69
2023/04/08 11:44:06;;;;;;;10.07;7.57;;;18.90;99.90;;;;;;5047866;28;20396;-69
2023/04/08 11:46:32;;;;;;;10.00;7.45;;;18.90;99.90;;;;;;5040740;28;20511;-69
2023/04/08 11:49:02;;;;;;;13.18;7.75;;;18.90;99.90;;;;;;5059425;28;20037;-69
2023/04/08 11:51:28;;;;;;;10.00;7.57;;;18.90;99.90;;;;;;5057759;28;20016;-69
2023/04/08 11:53:53;;;;;;;9.32;7.45;;;18.90;99.90;;;;;;5050051;28;20025;-70
2023/04/08 11:56:21;;;;;;;15.45;8.15;;;19.00;99.90;;;;;;5048211;28;20033;-70
2023/04/08 11:58:47;;;;;;;11.70;7.78;;;19.00;99.90;;;;;;5048747;28;20036;-70
2023/04/08 12:01:13;;;;;;;9.65;7.03;;;19.00;99.90;;;;;;5048663;28;20631;-70
2023/04/08 12:03:39;;;;;;;12.38;7.53;;;18.90;99.90;;;;;;5048283;28;20437;-70
2023/04/08 12:06:06;;;;;;;10.13;7.20;;;19.00;99.90;;;;;;5034608;28;20120;-70
2023/04/08 12:08:31;;;;;;;9.32;7.53;;;18.90;99.90;;;;;;5047922;28;20048;-70
2023/04/08 12:10:57;;;;;;;11.65;8.10;;;18.90;99.90;;;;;;5039510;28;20017;-71
2023/04/08 12:13:22;;;;;;;9.82;7.50;;;18.90;99.90;;;;;;5037812;28;20494;-70
2023/04/08 12:15:48;;;;;;;8.68;6.60;;;18.90;99.90;;;;;;5035816;28;20349;-70
2023/04/08 12:18:13;;;;;;;8.85;7.43;;;18.90;99.90;;;;;;5036039;28;20017;-70
2023/04/08 12:20:39;;;;;;;9.45;6.43;;;18.90;99.90;;;;;;5040141;28;20139;-70
2023/04/08 12:23:06;;;;;;;11.85;7.57;;;18.90;99.90;;;;;;5048733;28;20392;-70
2023/04/08 12:25:32;;;;;;;9.23;7.43;;;18.90;99.90;;;;;;5048383;28;20044;-70
2023/04/08 12:27:57;;;;;;;8.82;6.80;;;18.90;99.90;;;;;;5044836;28;20033;-70
2023/04/08 12:30:23;;;;;;;10.55;6.53;;;18.90;99.90;;;;;;5034144;28;20037;-70
2023/04/08 12:32:49;;;;;;;9.23;7.35;;;18.80;99.90;;;;;;5037545;28;20023;-70
2023/04/08 12:35:14;;;;;;;11.75;7.30;;;18.90;99.90;;;;;;5038407;28;20112;-70
2023/04/08 12:37:40;;;;;;;12.70;6.80;;;18.90;99.90;;;;;;5033390;28;20029;-70
2023/04/08 12:40:06;;;;;;;9.82;7.57;;;18.80;99.90;;;;;;5034674;28;20025;-70
2023/04/08 12:42:32;;;;;;;10.02;6.75;;;18.80;99.90;;;;;;5030931;28;20033;-70
2023/04/08 12:44:57;;;;;;;10.32;7.05;;;18.80;99.90;;;;;;5040850;28;20478;-70
2023/04/08 12:47:23;;;;;;;10.52;6.55;;;18.80;99.90;;;;;;5042032;28;20044;-70
2023/04/08 12:49:48;;;;;;;10.75;7.28;;;18.80;99.90;;;;;;5042813;28;20029;-69
2023/04/08 12:52:14;;;;;;;7.75;6.72;;;18.80;99.90;;;;;;5044455;28;20025;-69
2023/04/08 12:54:39;;;;;;;8.50;7.07;;;18.90;99.90;;;;;;5036163;28;20106;-69
2023/04/08 12:57:05;;;;;;;11.35;7.10;;;18.90;99.90;;;;;;5042374;28;20027;-70
2023/04/08 12:59:32;;;;;;;13.35;6.82;;;18.90;99.90;;;;;;5034352;28;20384;-68
2023/04/08 13:01:58;;;;;;;8.07;6.35;;;18.90;99.90;;;;;;5037360;28;20108;-67
2023/04/08 13:04:23;;;;;;;8.48;6.78;;;18.90;99.90;;;;;;5040744;28;20116;-69
2023/04/08 13:06:49;;;;;;;11.05;7.40;;;19.00;99.90;;;;;;5040548;28;20140;-68
2023/04/08 13:09:14;;;;;;;10.02;6.47;;;19.00;99.90;;;;;;5038753;28;20193;-68
2023/04/08 13:11:40;;;;;;;10.50;7.22;;;19.00;99.90;;;;;;5039056;28;20503;-69
2023/04/08 13:14:06;;;;;;;12.85;7.22;;;19.00;99.90;;;;;;5040272;28;20028;-69
2023/04/08 13:16:31;;;;;;;13.90;7.35;;;19.00;99.90;;;;;;5045471;28;20041;-69
2023/04/08 13:19:00;;;;;;;7.80;6.32;;;19.00;99.90;;;;;;5047586;28;20017;-69
2023/04/08 13:21:26;;;;;;;10.93;6.57;;;19.00;99.90;;;;;;5045235;28;20503;-69
2023/04/08 13:23:51;;;;;;;9.27;6.45;;;19.00;99.90;;;;;;5042654;28;20080;-70
2023/04/08 13:26:17;;;;;;;11.73;7.22;;;19.00;99.90;;;;;;5036966;28;20569;-70
2023/04/08 13:28:42;;;;;;;7.97;5.93;;;19.10;99.90;;;;;;5039162;28;20403;-72
2023/04/08 13:31:08;;;;;;;17.25;6.13;;;19.40;99.90;;;;;;5041779;28;20028;-70
2023/04/08 13:33:34;;;;;;;12.77;7.03;;;19.10;99.90;;;;;;5040763;28;20371;-70
2023/04/08 13:36:00;;;;;;;10.07;6.40;;;19.10;99.90;;;;;;5043856;28;20010;-71
2023/04/08 13:38:25;;;;;;;10.27;6.45;;;19.10;99.90;;;;;;5043257;28;20032;-70
2023/04/08 13:40:51;;;;;;;10.27;5.55;;;19.10;99.90;;;;;;5041807;28;20017;-70
2023/04/08 13:43:16;;;;;;;6.32;4.50;;;19.20;99.90;;;;;;5045371;28;20103;-70
2023/04/08 13:45:42;;;;;;;5.93;4.57;;;19.80;99.90;;;;;;5036165;28;20032;-70
2023/04/08 13:48:08;;;;;;;6.43;4.03;;;20.00;99.90;;;;;;5038956;28;20046;-69
2023/04/08 13:50:33;;;;;;;10.80;2.92;;;20.10;99.90;;;;;;5037498;28;20495;-70
2023/04/08 13:52:59;;;;;;;11.82;3.80;;;20.20;99.90;;;;;;5031084;28;20017;-75
2023/04/08 13:55:25;;;;;;;4.05;2.72;;;20.40;99.90;;;;;;5030431;28;20026;-71
2023/04/08 13:57:50;;;;;;;6.05;2.30;;;21.00;99.60;;;;;;5035772;28;20120;-76
2023/04/08 14:00:16;;;;;;;3.80;2.00;;;20.90;99.50;;;;;;5029634;28;20033;-74
2023/04/08 14:02:41;;;;;;;3.33;1.60;;;21.10;99.50;;;;;;5036292;28;20423;-75
2023/04/08 14:05:12;;;;;;;2.75;2.40;;;21.40;99.10;;;;;;5041526;28;20021;-77
2023/04/08 14:07:38;;;;;;;4.30;2.47;;;21.20;98.70;;;;;;5039890;28;20086;-77
2023/04/08 14:10:04;;;;;;;4.95;3.28;;;20.90;98.80;;;;;;5038738;28;20491;-76
2023/04/08 14:12:29;;;;;;;7.45;2.15;;;20.80;99.20;;;;;;5038611;28;20484;-76
2023/04/08 14:14:55;;;;;;;6.55;2.78;;;20.60;99.50;;;;;;5060700;28;20058;-76
2023/04/08 14:17:23;;;;;;;2.65;1.98;;;20.40;99.80;;;;;;5063103;28;20023;-77
2023/04/08 14:19:49;;;;;;;8.85;2.05;;;20.30;99.90;;;;;;5043127;28;20395;-77
2023/04/08 14:22:15;;;;;;;2.95;1.90;;;20.10;99.90;;;;;;5041414;28;20079;-76
2023/04/08 14:24:42;;;;;;;4.20;2.10;;;20.00;99.90;;;;;;5041074;28;20037;-76
2023/04/08 14:27:08;;;;;;;8.45;2.22;;;20.00;99.90;;;;;;5042038;28;20029;-76
2023/04/08 14:29:33;;;;;;;7.75;2.20;;;19.90;99.90;;;;;;5056410;28;20043;-77
2023/04/08 14:32:01;;;;;;;3.05;2.47;;;19.80;99.90;;;;;;5044003;28;20048;-76
2023/04/08 14:34:27;;;;;;;3.60;2.75;;;19.80;99.90;;;;;;5054135;28;20056;-74
2023/04/08 14:36:52;;;;;;;4.10;2.45;;;19.80;99.90;;;;;;5043327;28;20048;-76
2023/04/08 14:39:18;;;;;;;3.40;2.42;;;19.80;99.90;;;;;;5063545;28;20420;-74
2023/04/08 14:41:46;;;;;;;5.75;3.10;;;19.70;99.90;;;;;;5036336;28;20026;-73
2023/04/08 14:44:12;;;;;;;3.30;2.42;;;19.80;99.90;;;;;;5036045;28;20149;-74
2023/04/08 14:46:37;;;;;;;8.23;3.28;;;19.70;99.90;;;;;;5041079;28;20523;-75
2023/04/08 14:49:03;;;;;;;6.93;2.60;;;20.40;99.90;;;;;;5048725;28;20527;-74
2023/04/08 14:51:30;;;;;;;7.28;3.30;;;19.70;99.90;;;;;;5038268;28;20621;-75
2023/04/08 14:53:55;;;;;;;6.03;2.67;;;19.70;99.90;;;;;;5043757;28;20025;-73
2023/04/08 14:56:21;;;;;;;6.18;2.63;;;19.70;99.90;;;;;;5042287;28;20017;-73
2023/04/08 14:58:46;;;;;;;5.70;2.75;;;20.50;99.90;;;;;;5044809;28;20033;-75
2023/04/08 15:01:12;;;;;;;4.93;2.90;;;19.60;99.90;;;;;;5050838;28;20074;-71
2023/04/08 15:03:41;;;;;;;6.10;2.70;;;19.60;99.90;;;;;;5052274;28;20039;-74
2023/04/08 15:06:06;;;;;;;9.63;3.47;;;19.80;99.90;;;;;;5044972;28;20029;-74
2023/04/08 15:08:33;;;;;;;4.00;2.30;;;19.70;99.90;;;;;;5042829;28;20057;-75
2023/04/08 15:10:59;;;;;;;4.00;3.00;;;19.70;99.90;;;;;;5063894;28;20005;-75
2023/04/08 15:13:24;;;;;;;6.05;2.75;;;19.90;99.90;;;;;;5045601;28;20027;-74
2023/04/08 15:15:50;;;;;;;8.00;2.70;;;19.70;99.90;;;;;;5056067;28;20028;-75
2023/04/08 15:18:16;;;;;;;5.38;2.80;;;19.70;99.90;;;;;;5059908;28;20116;-75
2023/04/08 15:20:41;;;;;;;6.13;3.10;;;19.70;99.90;;;;;;5047991;28;20127;-73
2023/04/08 15:23:07;;;;;;;3.80;3.08;;;19.80;99.90;;;;;;5043550;28;20031;-75
2023/04/08 15:25:32;;;;;;;4.72;2.60;;;20.00;99.90;;;;;;5040349;28;20446;-73
2023/04/08 15:27:58;;;;;;;5.88;2.83;;;19.70;99.90;;;;;;5045058;28;20032;-74
2023/04/08 15:30:24;;;;;;;4.03;2.80;;;19.70;99.90;;;;;;5045597;28;20040;-74
2023/04/08 15:32:55;;;;;;;5.60;2.92;;;19.70;99.90;;;;;;5049229;28;20086;-74
2023/04/08 15:35:21;;;;;;;4.38;2.67;;;19.70;99.90;;;;;;5060294;28;20548;-74
2023/04/08 15:37:46;;;;;;;3.70;2.45;;;19.70;99.90;;;;;;5051544;28;20038;-74
2023/04/08 15:40:12;;;;;;;4.32;2.33;;;19.60;99.90;;;;;;5053786;28;20029;-75
2023/04/08 15:42:38;;;;;;;6.57;2.83;;;19.70;99.90;;;;;;5043916;28;20026;-73
2023/04/08 15:45:03;;;;;;;7.18;2.90;;;20.00;99.90;;;;;;5031367;28;20035;-72
2023/04/08 15:47:29;;;;;;;7.13;3.03;;;19.70;99.90;;;;;;5038237;28;20487;-74
2023/04/08 15:49:55;;;;;;;4.55;2.85;;;19.70;99.90;;;;;;5038253;28;20037;-75
2023/04/08 15:52:20;;;;;;;8.68;2.78;;;19.60;99.90;;;;;;5039835;28;20025;-73
2023/04/08 15:54:46;;;;;;;4.38;2.50;;;19.10;99.90;;;;;;5040091;28;20471;-74
2023/04/08 15:57:11;;;;;;;5.03;2.47;;;20.20;99.90;;;;;;5038135;28;20115;-73
2023/04/08 15:59:37;;;;;;;5.32;3.10;;;19.70;99.90;;;;;;5043224;28;20407;-73
2023/04/08 16:02:02;;;;;;;6.50;2.83;;;20.50;99.90;;;;;;5037991;28;20027;-73
2023/04/08 16:04:28;;;;;;;5.63;2.72;;;19.90;99.90;;;;;;5032447;28;20111;-73
2023/04/08 16:06:54;;;;;;;4.38;2.67;;;19.60;99.90;;;;;;5042319;28;20041;-73
2023/04/08 16:09:25;;;;;;;12.80;10.93;;;19.50;99.90;;;;;;5048843;28;20094;-74
2023/04/08 16:11:51;;;;;;;21.38;16.42;;;19.30;96.00;;;;;;5038797;28;20025;-73
2023/04/08 16:14:16;;;;;;;21.85;17.67;;;19.00;91.70;;;;;;5037078;28;20018;-71
2023/04/08 16:16:42;;;;;;;19.85;16.20;;;18.30;92.60;;;;;;5043383;28;20030;-75
2023/04/08 16:19:07;;;;;;;19.08;14.20;;;18.50;93.40;;;;;;5036667;28;20443;-75
2023/04/08 16:21:33;;;;;;;14.68;11.43;;;18.60;95.00;;;;;;5036852;28;20535;-75
2023/04/08 16:23:59;;;;;;;15.27;10.55;;;18.70;96.10;;;;;;5037409;28;20681;-74
2023/04/08 16:26:26;;;;;;;10.65;9.18;;;18.70;96.50;;;;;;5043294;28;20403;-75
2023/04/08 16:28:51;;;;;;;10.85;8.77;;;18.30;96.70;;;;;;5045691;28;20438;-74
2023/04/08 16:31:17;;;;;;;13.15;9.18;;;18.90;97.00;;;;;;5030892;28;20083;-74
2023/04/08 16:33:42;;;;;;;9.98;8.90;;;18.90;96.80;;;;;;5032125;28;20025;-74
2023/04/08 16:36:08;;;;;;;12.05;9.60;;;19.00;96.90;;;;;;5036206;28;20044;-74
2023/04/08 16:38:34;;;;;;;14.50;8.57;;;19.00;96.80;;;;;;5033806;28;20503;-73
2023/04/08 16:41:00;;;;;;;11.20;7.93;;;19.00;96.10;;;;;;5031671;28;20013;-74
2023/04/08 16:43:26;;;;;;;16.50;8.95;;;19.00;96.30;;;;;;5032135;28;20099;-74
2023/04/08 16:45:52;;;;;;;10.50;7.95;;;19.10;96.70;;;;;;5032702;28;20030;-73
2023/04/08 16:48:17;;;;;;;11.88;8.65;;;19.10;96.90;;;;;;5049952;28;20019;-73
2023/04/08 16:50:43;;;;;;;11.95;8.55;;;19.00;96.60;;;;;;5050658;28;20029;-74
2023/04/08 16:53:09;;;;;;;11.10;7.85;;;19.10;96.80;;;;;;5052024;28;20017;-74
2023/04/08 16:55:35;;;;;;;11.15;8.60;;;19.10;96.70;;;;;;5045418;28;20028;-74
2023/04/08 16:58:01;;;;;;;15.70;9.07;;;19.10;97.10;;;;;;5044891;28;20529;-75
2023/04/08 17:00:29;;;;;;;9.43;8.15;;;19.10;96.70;;;;;;5045575;28;20057;-74
2023/04/08 17:02:57;;;;;;;10.57;8.63;;;19.10;97.10;;;;;;5022077;28;20025;-75
2023/04/08 17:05:23;;;;;;;10.80;8.35;;;19.20;97.00;;;;;;5039867;28;20044;-75
2023/04/08 17:07:48;;;;;;;9.60;7.90;;;19.10;97.00;;;;;;5029653;28;20025;-75
2023/04/08 17:10:17;;;;;;;10.20;8.02;;;19.10;96.80;;;;;;5028426;28;20087;-75
2023/04/08 17:12:43;;;;;;;9.80;7.25;;;19.10;97.20;;;;;;5039152;28;20071;-75
2023/04/08 17:15:09;;;;;;;11.55;7.88;;;19.10;97.40;;;;;;5035064;28;20109;-76
2023/04/08 17:17:35;;;;;;;15.13;8.70;;;19.10;97.40;;;;;;5032844;28;20457;-81
2023/04/08 17:20:00;;;;;;;11.80;8.43;;;19.10;97.30;;;;;;5037927;28;20550;-75
2023/04/08 17:22:26;;;;;;;12.98;9.38;;;19.10;97.30;;;;;;5031628;28;20346;-76
2023/04/08 17:24:51;;;;;;;18.73;8.70;;;19.30;97.40;;;;;;5031827;28;20120;-73
2023/04/08 17:27:17;;;;;;;11.73;8.85;;;19.10;97.30;;;;;;5032041;28;20021;-76
2023/04/08 17:29:43;;;;;;;11.90;9.23;;;19.00;97.30;;;;;;5041785;28;20518;-77
2023/04/08 17:32:08;;;;;;;16.67;8.85;;;19.10;97.30;;;;;;5048239;28;20017;-77
2023/04/08 17:34:34;;;;;;;16.13;9.95;;;19.20;97.60;;;;;;5046538;28;20132;-77
2023/04/08 17:37:01;;;;;;;19.48;9.77;;;19.10;98.10;;;;;;5046537;28;20021;-77
2023/04/08 17:39:27;;;;;;;16.40;10.10;;;19.00;98.30;;;;;;5045818;28;20036;-77
2023/04/08 17:41:52;;;;;;;18.48;10.45;;;19.00;98.50;;;;;;5038467;28;20104;-71
2023/04/08 17:44:18;;;;;;;16.55;10.82;;;19.10;98.20;;;;;;5041355;28;20032;-74
2023/04/08 17:46:44;;;;;;;18.10;11.48;;;19.10;98.30;;;;;;5040236;28;20029;-75
2023/04/08 17:49:13;;;;;;;21.15;12.02;;;19.10;98.30;;;;;;5033716;28;20484;-76
2023/04/08 17:51:38;;;;;;;17.73;12.70;;;19.10;98.40;;;;;;5039145;28;20062;-76
2023/04/08 17:54:04;;;;;;;20.83;13.35;;;19.10;98.40;;;;;;5042761;28;20422;-74
2023/04/08 17:56:30;;;;;;;20.67;13.50;;;19.00;98.10;;;;;;5055316;28;20021;-76
2023/04/08 17:58:55;;;;;;;19.38;12.52;;;19.10;98.30;;;;;;5053639;28;20029;-76
2023/04/08 18:01:21;;;;;;;21.75;13.32;;;19.10;98.30;;;;;;5047828;28;20048;-76
2023/04/08 18:03:48;;;;;;;18.23;13.50;;;19.20;98.50;;;;;;5058166;28;20032;-76
2023/04/08 18:06:14;;;;;;;23.08;13.98;;;19.10;98.30;;;;;;5043795;28;20035;-76
2023/04/08 18:08:39;;;;;;;21.40;13.95;;;19.20;98.60;;;;;;5054783;28;20120;-76
2023/04/08 18:11:05;;;;;;;20.85;13.90;;;19.20;98.30;;;;;;5049456;28;20084;-76
2023/04/08 18:13:30;;;;;;;23.73;14.05;;;19.20;98.20;;;;;;5047900;28;20018;-76
2023/04/08 18:15:56;;;;;;;21.33;14.73;;;19.20;97.50;;;;;;5047936;28;20025;-75
2023/04/08 18:18:23;;;;;;;23.58;15.98;;;19.20;96.90;;;;;;5041684;28;20460;-75
2023/04/08 18:20:49;;;;;;;23.10;15.40;;;19.20;96.50;;;;;;5052413;28;20406;-77
2023/04/08 18:23:14;;;;;;;21.67;14.48;;;19.30;96.20;;;;;;5047212;28;20033;-75
2023/04/08 18:25:43;;;;;;;23.10;14.10;;;19.30;97.30;;;;;;5033471;28;20111;-76
2023/04/08 18:28:09;;;;;;;25.33;15.90;;;19.20;97.10;;;;;;5044786;28;20090;-77
2023/04/08 18:30:34;;;;;;;24.13;15.15;;;19.30;96.40;;;;;;5041204;28;20038;-75
2023/04/08 18:33:00;;;;;;;26.33;14.70;;;19.30;96.20;;;;;;5048068;28;20123;-76
2023/04/08 18:35:26;;;;;;;22.65;13.30;;;19.30;96.00;;;;;;5036619;28;20021;-75
2023/04/08 18:37:51;;;;;;;19.13;13.63;;;19.30;95.90;;;;;;5038970;28;20029;-76
2023/04/08 18:40:20;;;;;;;24.40;13.60;;;19.30;96.10;;;;;;5037460;28;20081;-76
2023/04/08 18:42:46;;;;;;;15.20;12.55;;;19.30;96.00;;;;;;5037709;28;20029;-76
2023/04/08 18:45:11;;;;;;;18.73;13.32;;;19.30;96.00;;;;;;5052341;28;20083;-74
2023/04/08 18:47:37;;;;;;;22.65;13.30;;;19.30;96.30;;;;;;5037354;28;20033;-77
2023/04/08 18:50:03;;;;;;;16.58;12.65;;;19.30;96.30;;;;;;5051718;28;20029;-75
2023/04/08 18:52:29;;;;;;;17.67;12.52;;;19.30;96.20;;;;;;5046842;28;20025;-73
2023/04/08 18:54:55;;;;;;;22.13;12.93;;;19.40;96.20;;;;;;5045991;28;20025;-71
2023/04/08 18:57:20;;;;;;;24.17;14.65;;;19.30;96.00;;;;;;5039304;28;20028;-72
2023/04/08 18:59:49;;;;;;;21.23;13.55;;;19.30;95.90;;;;;;5036055;28;20020;-71
2023/04/08 19:02:15;;;;;;;19.33;13.50;;;19.30;96.20;;;;;;5012189;28;20033;-71
2023/04/08 19:04:40;;;;;;;20.38;12.95;;;19.40;96.20;;;;;;5041910;28;20033;-72
2023/04/08 19:07:06;;;;;;;16.75;12.05;;;19.30;96.20;;;;;;5037476;28;20369;-72
2023/04/08 19:09:32;;;;;;;18.90;12.48;;;19.30;96.20;;;;;;5039547;28;20057;-72
2023/04/08 19:11:57;;;;;;;21.88;12.77;;;19.30;96.20;;;;;;5044566;28;20373;-72
2023/04/08 19:14:24;;;;;;;18.83;12.27;;;19.30;96.20;;;;;;5043419;28;20167;-75
2023/04/08 19:16:49;;;;;;;19.30;13.07;;;19.30;96.10;;;;;;5047576;28;20108;-78
2023/04/08 19:19:15;;;;;;;16.80;11.80;;;19.30;96.30;;;;;;5052204;28;20125;-78
2023/04/08 19:21:41;;;;;;;14.77;11.50;;;19.40;95.90;;;;;;5040110;28;20102;-77
2023/04/08 19:24:08;;;;;;;16.13;11.88;;;19.30;96.40;;;;;;5043727;28;20032;-71
2023/04/08 19:26:36;;;;;;;16.42;11.32;;;19.40;96.80;;;;;;5042155;28;20028;-76
2023/04/08 19:29:02;;;;;;;23.80;12.18;;;19.30;96.40;;;;;;5041952;28;20104;-75
2023/04/08 19:31:27;;;;;;;17.95;11.77;;;19.30;95.90;;;;;;5041013;28;20124;-76
2023/04/08 19:33:53;;;;;;;16.42;11.60;;;19.40;95.90;;;;;;5039651;28;20017;-76
2023/04/08 19:36:18;;;;;;;15.90;10.95;;;19.30;95.80;;;;;;5040037;28;20025;-76
2023/04/08 19:38:44;;;;;;;20.02;11.40;;;19.40;95.80;;;;;;5042342;28;20036;-75
2023/04/08 19:41:10;;;;;;;17.27;10.82;;;19.50;95.80;;;;;;5044710;28;20029;-74
2023/04/08 19:43:35;;;;;;;13.23;10.48;;;19.40;95.70;;;;;;5042037;28;20017;-75
2023/04/08 19:46:01;;;;;;;21.60;12.05;;;19.50;95.70;;;;;;5052727;28;20789;-76
2023/04/08 19:48:26;;;;;;;19.75;11.25;;;19.40;95.70;;;;;;5040786;28;20029;-75
2023/04/08 19:50:52;;;;;;;17.80;11.35;;;19.40;96.40;;;;;;5028653;28;20045;-75
2023/04/08 19:53:17;;;;;;;15.65;10.27;;;19.40;96.10;;;;;;5043881;28;20406;-75
2023/04/08 19:55:44;;;;;;;15.32;10.93;;;19.40;96.00;;;;;;5043317;28;20090;-73
2023/04/08 19:58:09;;;;;;;17.08;10.35;;;19.30;96.40;;;;;;5042134;28;20022;-72
2023/04/08 20:00:37;;;;;;;14.20;9.95;;;19.40;96.10;;;;;;5042296;28;20517;-72
